createdAt,value
2018-06-20T00:00:28.922Z,31.80
2018-06-20T00:01:32.289Z,31.70
2018-06-20T00:02:35.628Z,31.70
2018-06-20T00:03:39.081Z,31.70
2018-06-20T00:04:42.501Z,31.70
2018-06-20T00:05:45.833Z,31.70
2018-06-20T00:06:49.236Z,31.70
2018-06-20T00:07:52.609Z,31.70
2018-06-20T00:08:55.988Z,31.70
2018-06-20T00:09:59.633Z,31.70
2018-06-20T00:11:03.096Z,31.70
2018-06-20T00:12:06.504Z,31.70
2018-06-20T00:14:13.116Z,31.70
2018-06-20T00:15:16.469Z,31.70
2018-06-20T00:16:20.600Z,31.70
2018-06-20T00:17:24.037Z,31.70
2018-06-20T00:18:27.385Z,31.70
2018-06-20T00:19:30.873Z,31.70
2018-06-20T00:20:34.405Z,31.70
2018-06-20T00:21:37.844Z,31.70
2018-06-20T00:22:41.276Z,31.70
2018-06-20T00:23:44.665Z,31.70
2018-06-20T00:24:48.093Z,31.70
2018-06-20T00:25:51.432Z,31.70
2018-06-20T00:26:54.808Z,31.70
2018-06-20T00:27:58.124Z,31.70
2018-06-20T00:29:01.584Z,31.60
2018-06-20T00:30:05.426Z,31.70
2018-06-20T00:31:08.781Z,31.70
2018-06-20T00:32:12.188Z,31.70
2018-06-20T00:33:15.569Z,31.60
2018-06-20T00:35:22.276Z,31.60
2018-06-20T00:36:25.771Z,31.60
2018-06-20T00:37:30.073Z,31.60
2018-06-20T00:38:33.859Z,31.60
2018-06-20T00:39:37.417Z,31.60
2018-06-20T00:40:40.932Z,31.60
2018-06-20T00:41:44.324Z,31.60
2018-06-20T00:42:47.642Z,31.60
2018-06-20T00:43:51.090Z,31.60
2018-06-20T00:44:54.542Z,31.60
2018-06-20T00:45:57.988Z,31.60
2018-06-20T00:47:01.352Z,31.50
2018-06-20T00:48:04.823Z,31.50
2018-06-20T00:49:08.401Z,31.50
2018-06-20T00:50:11.704Z,31.50
2018-06-20T00:51:15.156Z,31.40
2018-06-20T00:53:21.565Z,31.40
2018-06-20T00:54:24.972Z,31.40
2018-06-20T00:55:39.679Z,31.40
2018-06-20T00:56:43.299Z,31.40
2018-06-20T00:57:46.760Z,31.40
2018-06-20T01:00:56.315Z,31.30
2018-06-20T01:02:02.294Z,31.30
2018-06-20T01:03:06.053Z,31.30
2018-06-20T01:04:09.755Z,31.30
2018-06-20T01:05:13.126Z,31.30
2018-06-20T01:06:16.646Z,31.30
2018-06-20T01:07:20.072Z,31.30
2018-06-20T01:08:23.536Z,31.20
2018-06-20T01:09:27.024Z,31.20
2018-06-20T01:10:30.382Z,31.30
2018-06-20T01:11:33.797Z,31.30
2018-06-20T01:12:37.781Z,31.30
2018-06-20T01:13:41.248Z,31.30
2018-06-20T01:14:44.635Z,31.30
2018-06-20T01:15:48.009Z,31.30
2018-06-20T01:16:51.348Z,31.30
2018-06-20T01:17:54.681Z,31.40
2018-06-20T01:18:58.098Z,31.30
2018-06-20T01:20:01.433Z,31.30
2018-06-20T01:21:04.793Z,31.30
2018-06-20T01:22:08.206Z,31.30
2018-06-20T01:23:11.601Z,31.30
2018-06-20T01:24:15.096Z,31.40
2018-06-20T01:25:18.613Z,31.40
2018-06-20T01:26:21.965Z,31.30
2018-06-20T01:27:25.555Z,31.30
2018-06-20T01:28:28.911Z,31.40
2018-06-20T01:29:32.325Z,31.30
2018-06-20T01:30:35.661Z,31.30
2018-06-20T01:31:39.030Z,31.30
2018-06-20T01:32:42.599Z,31.30
2018-06-20T01:33:45.932Z,31.30
2018-06-20T01:34:49.363Z,31.30
2018-06-20T01:35:52.688Z,31.30
2018-06-20T01:36:56.021Z,31.30
2018-06-20T01:37:59.605Z,31.30
2018-06-20T01:39:03.017Z,31.30
2018-06-20T01:40:06.548Z,31.30
2018-06-20T01:41:09.985Z,31.30
2018-06-20T01:42:13.360Z,31.30
2018-06-20T01:43:16.702Z,31.30
2018-06-20T01:44:20.205Z,31.30
2018-06-20T01:45:23.751Z,31.30
2018-06-20T01:46:27.117Z,31.30
2018-06-20T01:47:30.552Z,31.30
2018-06-20T01:48:33.866Z,31.30
2018-06-20T01:49:37.255Z,31.30
2018-06-20T01:51:43.674Z,31.40
2018-06-20T01:52:47.169Z,31.40
2018-06-20T01:53:50.640Z,31.30
2018-06-20T01:54:54.083Z,31.30
2018-06-20T01:55:57.693Z,31.30
2018-06-20T01:57:01.002Z,31.30
2018-06-20T01:58:04.400Z,31.30
2018-06-20T01:59:07.776Z,31.30
2018-06-20T02:00:11.240Z,31.30
2018-06-20T02:01:14.751Z,31.30
2018-06-20T02:02:19.917Z,31.30
2018-06-20T02:03:23.368Z,31.30
2018-06-20T02:04:27.119Z,31.30
2018-06-20T02:05:30.600Z,31.30
2018-06-20T02:06:34.326Z,31.20
2018-06-20T02:07:37.714Z,31.20
2018-06-20T02:08:41.031Z,31.20
2018-06-20T02:09:44.409Z,31.20
2018-06-20T02:10:47.744Z,31.20
2018-06-20T02:11:51.207Z,31.20
2018-06-20T02:12:54.586Z,31.20
2018-06-20T02:13:57.951Z,31.20
2018-06-20T02:15:01.315Z,31.20
2018-06-20T02:16:04.729Z,31.20
2018-06-20T02:17:08.082Z,31.20
2018-06-20T02:18:11.557Z,31.20
2018-06-20T02:19:14.917Z,31.20
2018-06-20T02:21:21.741Z,31.20
2018-06-20T02:22:25.092Z,31.20
2018-06-20T02:23:28.580Z,31.10
2018-06-20T02:25:34.980Z,31.20
2018-06-20T02:26:38.371Z,31.10
2018-06-20T02:27:41.805Z,31.20
2018-06-20T02:28:45.140Z,31.20
2018-06-20T02:29:48.564Z,31.20
2018-06-20T02:30:52.052Z,31.20
2018-06-20T02:31:55.796Z,31.20
2018-06-20T02:32:59.204Z,31.20
2018-06-20T02:34:02.607Z,31.20
2018-06-20T02:35:06.681Z,31.20
2018-06-20T02:36:15.292Z,31.10
2018-06-20T02:37:18.657Z,31.10
2018-06-20T02:38:22.096Z,31.10
2018-06-20T02:39:25.736Z,31.10
2018-06-20T02:40:29.109Z,31.10
2018-06-20T02:41:32.730Z,31.00
2018-06-20T02:42:36.026Z,31.00
2018-06-20T02:43:39.386Z,31.00
2018-06-20T02:44:42.775Z,31.00
2018-06-20T02:45:46.097Z,31.00
2018-06-20T02:46:49.444Z,31.00
2018-06-20T02:47:57.036Z,31.10
2018-06-20T02:49:00.485Z,31.00
2018-06-20T02:50:03.862Z,31.00
2018-06-20T02:51:07.218Z,31.10
2018-06-20T02:52:10.521Z,31.00
2018-06-20T02:53:13.819Z,31.10
2018-06-20T02:54:17.155Z,31.10
2018-06-20T02:55:20.576Z,31.00
2018-06-20T02:56:24.043Z,31.00
2018-06-20T02:57:27.790Z,31.00
2018-06-20T02:58:31.100Z,31.00
2018-06-20T02:59:34.534Z,31.00
2018-06-20T03:00:37.895Z,31.00
2018-06-20T03:01:41.198Z,31.00
2018-06-20T03:02:44.556Z,30.90
2018-06-20T03:03:47.901Z,30.90
2018-06-20T03:04:51.265Z,30.90
2018-06-20T03:05:54.622Z,30.90
2018-06-20T03:06:57.978Z,30.90
2018-06-20T03:08:01.417Z,30.90
2018-06-20T03:09:13.106Z,30.90
2018-06-20T03:10:16.752Z,30.90
2018-06-20T03:11:20.105Z,30.90
2018-06-20T03:12:23.477Z,30.80
2018-06-20T03:13:26.792Z,30.80
2018-06-20T03:14:31.001Z,30.80
2018-06-20T03:15:34.440Z,30.80
2018-06-20T03:16:37.779Z,30.80
2018-06-20T03:17:41.189Z,30.80
2018-06-20T03:18:44.525Z,30.80
2018-06-20T03:19:47.882Z,30.80
2018-06-20T03:20:51.241Z,30.80
2018-06-20T03:21:54.985Z,30.80
2018-06-20T03:22:58.695Z,30.80
2018-06-20T03:24:02.049Z,30.80
2018-06-20T03:25:05.901Z,30.80
2018-06-20T03:26:09.252Z,30.80
2018-06-20T03:27:12.814Z,30.80
2018-06-20T03:28:16.341Z,30.80
2018-06-20T03:29:19.722Z,30.80
2018-06-20T03:30:23.090Z,30.70
2018-06-20T03:31:26.713Z,30.70
2018-06-20T03:32:31.101Z,30.70
2018-06-20T03:33:34.702Z,30.80
2018-06-20T03:34:38.204Z,30.70
2018-06-20T03:35:41.779Z,30.70
2018-06-20T03:36:45.212Z,30.70
2018-06-20T03:37:48.759Z,30.70
2018-06-20T03:38:52.158Z,30.70
2018-06-20T03:39:55.651Z,30.70
2018-06-20T03:40:58.987Z,30.70
2018-06-20T03:43:05.679Z,30.70
2018-06-20T03:44:09.281Z,30.70
2018-06-20T03:45:12.677Z,30.70
2018-06-20T03:46:16.024Z,30.70
2018-06-20T03:47:19.449Z,30.70
2018-06-20T03:48:22.825Z,30.70
2018-06-20T03:49:26.208Z,30.70
2018-06-20T03:50:29.643Z,30.70
2018-06-20T03:51:33.498Z,30.70
2018-06-20T03:52:37.000Z,30.70
2018-06-20T03:53:40.404Z,30.70
2018-06-20T03:54:43.786Z,30.70
2018-06-20T03:55:47.240Z,30.60
2018-06-20T03:56:50.610Z,30.70
2018-06-20T03:57:54.024Z,30.70
2018-06-20T03:58:57.377Z,30.60
2018-06-20T04:00:00.722Z,30.70
2018-06-20T04:01:04.515Z,30.70
2018-06-20T04:02:08.004Z,30.60
2018-06-20T04:03:11.320Z,30.60
2018-06-20T04:04:14.745Z,30.70
2018-06-20T04:05:18.086Z,30.60
2018-06-20T04:06:21.566Z,30.60
2018-06-20T04:07:25.023Z,30.60
2018-06-20T04:08:28.392Z,30.60
2018-06-20T04:09:31.905Z,30.60
2018-06-20T04:10:35.454Z,30.60
2018-06-20T04:11:38.982Z,30.60
2018-06-20T04:12:42.374Z,30.60
2018-06-20T04:13:45.710Z,30.60
2018-06-20T04:14:49.045Z,30.60
2018-06-20T04:15:52.463Z,30.60
2018-06-20T04:16:55.803Z,30.60
2018-06-20T04:17:59.168Z,30.50
2018-06-20T04:19:02.763Z,30.60
2018-06-20T04:20:06.245Z,30.50
2018-06-20T04:21:11.366Z,30.60
2018-06-20T04:22:14.752Z,30.60
2018-06-20T04:23:18.096Z,30.60
2018-06-20T04:24:21.443Z,30.60
2018-06-20T04:25:24.843Z,30.60
2018-06-20T04:26:28.298Z,30.60
2018-06-20T04:27:31.867Z,30.50
2018-06-20T04:28:35.574Z,30.50
2018-06-20T04:29:39.084Z,30.50
2018-06-20T04:30:42.598Z,30.50
2018-06-20T04:31:46.101Z,30.50
2018-06-20T04:32:49.441Z,30.50
2018-06-20T04:33:52.823Z,30.50
2018-06-20T04:34:56.203Z,30.50
2018-06-20T04:35:59.771Z,30.50
2018-06-20T04:37:03.138Z,30.50
2018-06-20T04:38:07.475Z,30.50
2018-06-20T04:39:11.758Z,30.50
2018-06-20T04:40:15.924Z,30.50
2018-06-20T04:41:19.386Z,30.50
2018-06-20T04:42:22.763Z,30.50
2018-06-20T04:43:26.199Z,30.50
2018-06-20T04:44:29.566Z,30.50
2018-06-20T04:45:32.881Z,30.50
2018-06-20T04:46:36.213Z,30.50
2018-06-20T04:47:39.566Z,30.50
2018-06-20T04:48:43.024Z,30.50
2018-06-20T04:49:46.473Z,30.50
2018-06-20T04:50:49.961Z,30.50
2018-06-20T04:51:53.574Z,30.50
2018-06-20T04:52:56.944Z,30.50
2018-06-20T04:54:00.313Z,30.40
2018-06-20T04:55:03.690Z,30.50
2018-06-20T04:56:07.078Z,30.50
2018-06-20T04:57:10.717Z,30.50
2018-06-20T04:58:14.905Z,30.40
2018-06-20T04:59:18.485Z,30.40
2018-06-20T05:00:21.934Z,30.40
2018-06-20T05:01:25.280Z,30.50
2018-06-20T05:02:28.609Z,30.50
2018-06-20T05:03:31.948Z,30.50
2018-06-20T05:04:35.429Z,30.50
2018-06-20T05:05:38.813Z,30.50
2018-06-20T05:06:42.188Z,30.50
2018-06-20T05:07:45.816Z,30.50
2018-06-20T05:08:49.450Z,30.50
2018-06-20T05:09:55.124Z,30.50
2018-06-20T05:10:58.525Z,30.50
2018-06-20T05:12:01.852Z,30.50
2018-06-20T05:13:05.613Z,30.50
2018-06-20T05:14:08.965Z,30.40
2018-06-20T05:15:12.444Z,30.40
2018-06-20T05:16:15.765Z,30.50
2018-06-20T05:17:19.737Z,30.50
2018-06-20T05:18:23.269Z,30.50
2018-06-20T05:19:26.840Z,30.50
2018-06-20T05:20:30.357Z,30.50
2018-06-20T05:21:33.807Z,30.50
2018-06-20T05:22:37.143Z,30.50
2018-06-20T05:23:40.441Z,30.50
2018-06-20T05:24:43.905Z,30.80
2018-06-20T05:25:47.308Z,30.50
2018-06-20T05:27:53.940Z,30.50
2018-06-20T05:28:57.334Z,30.50
2018-06-20T05:30:00.796Z,30.50
2018-06-20T05:31:04.195Z,30.50
2018-06-20T05:32:07.572Z,30.50
2018-06-20T05:33:10.892Z,30.50
2018-06-20T05:34:14.309Z,30.50
2018-06-20T05:35:17.833Z,30.50
2018-06-20T05:36:21.370Z,30.50
2018-06-20T05:37:24.767Z,30.50
2018-06-20T05:38:28.114Z,30.50
2018-06-20T05:39:31.480Z,30.50
2018-06-20T05:40:34.825Z,30.50
2018-06-20T05:41:38.487Z,30.50
2018-06-20T05:42:41.904Z,30.50
2018-06-20T05:43:45.365Z,30.50
2018-06-20T05:44:48.750Z,30.50
2018-06-20T05:46:56.488Z,30.50
2018-06-20T05:48:00.412Z,30.50
2018-06-20T05:49:03.854Z,30.50
2018-06-20T05:50:07.303Z,30.50
2018-06-20T05:51:10.643Z,30.50
2018-06-20T05:52:14.025Z,30.50
2018-06-20T05:53:17.791Z,30.50
2018-06-20T05:54:21.333Z,30.60
2018-06-20T05:55:24.793Z,30.60
2018-06-20T05:56:28.245Z,30.60
2018-06-20T05:57:31.682Z,30.60
2018-06-20T05:58:35.458Z,30.60
2018-06-20T05:59:38.838Z,30.60
2018-06-20T06:00:42.545Z,30.60
2018-06-20T06:01:46.005Z,30.60
2018-06-20T06:02:49.495Z,30.50
2018-06-20T06:03:52.878Z,30.50
2018-06-20T06:06:09.284Z,30.50
2018-06-20T06:07:12.703Z,30.50
2018-06-20T06:08:16.078Z,30.40
2018-06-20T06:09:19.697Z,30.40
2018-06-20T06:10:23.028Z,30.40
2018-06-20T06:11:26.690Z,30.40
2018-06-20T06:12:30.096Z,30.40
2018-06-20T06:14:36.940Z,30.40
2018-06-20T06:15:40.318Z,30.40
2018-06-20T06:16:43.653Z,30.40
2018-06-20T06:17:47.101Z,30.40
2018-06-20T06:18:50.428Z,30.40
2018-06-20T06:19:53.914Z,30.40
2018-06-20T06:20:57.451Z,30.40
2018-06-20T06:22:00.969Z,30.40
2018-06-20T06:23:04.799Z,30.40
2018-06-20T06:24:08.136Z,30.40
2018-06-20T06:25:11.522Z,30.40
2018-06-20T06:26:15.552Z,30.40
2018-06-20T06:27:19.077Z,30.40
2018-06-20T06:28:22.412Z,30.40
2018-06-20T06:29:25.900Z,30.40
2018-06-20T06:30:29.402Z,30.40
2018-06-20T06:31:32.839Z,30.40
2018-06-20T06:32:36.294Z,30.40
2018-06-20T06:33:39.696Z,30.40
2018-06-20T06:34:43.065Z,30.40
2018-06-20T06:35:46.416Z,30.40
2018-06-20T06:36:49.913Z,30.40
2018-06-20T06:37:53.473Z,30.40
2018-06-20T06:38:56.824Z,30.40
2018-06-20T06:40:00.407Z,30.40
2018-06-20T06:41:03.846Z,30.40
2018-06-20T06:42:07.390Z,30.40
2018-06-20T06:43:11.086Z,30.40
2018-06-20T06:44:14.444Z,30.40
2018-06-20T06:45:17.817Z,30.40
2018-06-20T06:46:21.158Z,30.40
2018-06-20T06:47:24.548Z,30.40
2018-06-20T06:48:28.017Z,30.50
2018-06-20T06:49:31.750Z,30.40
2018-06-20T06:50:36.016Z,30.40
2018-06-20T06:51:39.530Z,30.40
2018-06-20T06:52:42.887Z,30.40
2018-06-20T06:53:46.265Z,30.40
2018-06-20T06:54:49.709Z,30.40
2018-06-20T06:55:53.021Z,30.40
2018-06-20T06:56:56.404Z,30.40
2018-06-20T06:58:00.256Z,30.40
2018-06-20T06:59:03.954Z,30.40
2018-06-20T07:00:07.426Z,30.40
2018-06-20T07:01:10.768Z,30.50
2018-06-20T07:02:14.156Z,30.50
2018-06-20T07:03:17.488Z,30.50
2018-06-20T07:04:20.821Z,30.50
2018-06-20T07:05:24.345Z,30.60
2018-06-20T07:06:27.707Z,30.60
2018-06-20T07:07:31.453Z,30.60
2018-06-20T07:08:34.917Z,30.60
2018-06-20T07:09:38.486Z,30.60
2018-06-20T07:10:41.809Z,30.60
2018-06-20T07:11:45.368Z,30.60
2018-06-20T07:12:53.057Z,30.60
2018-06-20T07:13:56.404Z,30.60
2018-06-20T07:16:02.889Z,30.70
2018-06-20T07:17:06.276Z,30.60
2018-06-20T07:18:09.984Z,30.70
2018-06-20T07:19:13.461Z,30.60
2018-06-20T07:20:17.053Z,30.70
2018-06-20T07:21:20.537Z,30.70
2018-06-20T07:22:24.036Z,30.70
2018-06-20T07:23:27.626Z,30.70
2018-06-20T07:24:31.045Z,30.70
2018-06-20T07:25:34.454Z,30.70
2018-06-20T07:26:38.064Z,30.70
2018-06-20T07:28:44.628Z,30.70
2018-06-20T07:29:48.047Z,30.70
2018-06-20T07:30:51.413Z,30.70
2018-06-20T07:31:54.900Z,30.80
2018-06-20T07:32:58.492Z,30.70
2018-06-20T07:34:01.954Z,30.70
2018-06-20T07:35:05.356Z,30.80
2018-06-20T07:36:09.277Z,30.70
2018-06-20T07:37:12.765Z,30.70
2018-06-20T07:38:16.249Z,30.80
2018-06-20T07:39:19.583Z,30.80
2018-06-20T07:40:23.026Z,30.80
2018-06-20T07:41:26.364Z,30.80
2018-06-20T07:42:29.773Z,30.80
2018-06-20T07:43:33.189Z,30.80
2018-06-20T07:44:36.588Z,30.70
2018-06-20T07:45:40.169Z,30.70
2018-06-20T07:46:43.702Z,30.80
2018-06-20T07:47:47.165Z,30.80
2018-06-20T07:48:50.594Z,30.80
2018-06-20T07:50:57.358Z,30.80
2018-06-20T07:53:03.849Z,30.80
2018-06-20T07:54:07.322Z,30.80
2018-06-20T07:56:13.862Z,30.80
2018-06-20T07:57:17.372Z,30.80
2018-06-20T07:58:26.060Z,30.80
2018-06-20T07:59:34.669Z,30.80
2018-06-20T08:00:43.367Z,30.80
2018-06-20T08:02:09.254Z,30.80
2018-06-20T08:03:18.592Z,30.70
2018-06-20T08:04:27.441Z,30.60
2018-06-20T08:05:36.310Z,30.50
2018-06-20T08:06:47.831Z,30.60
2018-06-20T08:07:56.690Z,30.60
2018-06-20T08:10:07.313Z,30.60
2018-06-20T08:12:24.739Z,30.20
2018-06-20T08:13:33.477Z,30.20
2018-06-20T08:14:42.204Z,30.20
2018-06-20T08:15:50.929Z,30.30
2018-06-20T08:16:59.741Z,30.30
2018-06-20T08:18:08.385Z,30.40
2018-06-20T08:19:17.244Z,30.50
2018-06-20T08:20:23.418Z,30.50
2018-06-20T08:21:26.784Z,30.50
2018-06-20T08:22:30.154Z,30.50
2018-06-20T08:23:33.577Z,30.60
2018-06-20T08:24:41.644Z,30.70
2018-06-20T08:25:46.029Z,30.70
2018-06-20T08:26:49.567Z,30.80
2018-06-20T08:27:53.058Z,30.80
2018-06-20T08:28:56.425Z,30.80
2018-06-20T08:30:01.352Z,30.80
2018-06-20T08:31:04.742Z,30.90
2018-06-20T08:32:08.083Z,30.90
2018-06-20T08:33:11.621Z,30.90
2018-06-20T08:34:15.709Z,30.90
2018-06-20T08:35:19.085Z,30.90
2018-06-20T08:36:22.503Z,30.90
2018-06-20T08:37:25.860Z,30.90
2018-06-20T08:38:29.433Z,31.00
2018-06-20T08:39:32.811Z,30.90
2018-06-20T08:40:36.231Z,30.90
2018-06-20T08:41:39.736Z,30.90
2018-06-20T08:42:43.108Z,30.90
2018-06-20T08:43:46.907Z,31.00
2018-06-20T08:44:51.478Z,31.00
2018-06-20T08:45:55.196Z,31.00
2018-06-20T08:46:58.550Z,31.00
2018-06-20T08:48:01.909Z,31.00
2018-06-20T08:49:05.357Z,31.00
2018-06-20T08:50:08.745Z,31.10
2018-06-20T08:51:12.096Z,31.10
2018-06-20T08:52:15.814Z,31.10
2018-06-20T08:53:19.519Z,31.10
2018-06-20T08:54:23.201Z,31.10
2018-06-20T08:56:29.716Z,31.10
2018-06-20T08:57:33.081Z,31.10
2018-06-20T08:58:36.825Z,31.10
2018-06-20T08:59:40.266Z,31.20
2018-06-20T09:00:49.070Z,31.20
2018-06-20T09:01:52.465Z,31.20
2018-06-20T09:02:56.489Z,31.10
2018-06-20T09:04:05.238Z,31.10
2018-06-20T09:05:14.065Z,31.10
2018-06-20T09:06:22.792Z,31.10
2018-06-20T09:07:31.713Z,31.10
2018-06-20T09:08:40.493Z,31.10
2018-06-20T09:09:49.128Z,31.10
2018-06-20T09:10:57.976Z,31.10
2018-06-20T09:12:06.609Z,31.10
2018-06-20T09:13:15.272Z,31.10
2018-06-20T09:14:18.750Z,31.00
2018-06-20T09:15:27.555Z,31.00
2018-06-20T09:16:36.278Z,31.10
2018-06-20T09:17:45.073Z,31.10
2018-06-20T09:18:53.791Z,31.10
2018-06-20T09:19:58.017Z,31.10
2018-06-20T09:21:01.452Z,31.10
2018-06-20T09:22:04.866Z,31.10
2018-06-20T09:23:08.341Z,31.20
2018-06-20T09:24:11.842Z,31.20
2018-06-20T09:25:15.366Z,31.20
2018-06-20T09:26:18.921Z,31.30
2018-06-20T09:27:22.446Z,31.30
2018-06-20T09:28:25.914Z,31.30
2018-06-20T09:29:29.325Z,31.40
2018-06-20T09:30:32.657Z,31.40
2018-06-20T09:32:39.617Z,31.40
2018-06-20T09:33:43.128Z,31.40
2018-06-20T09:34:46.653Z,31.50
2018-06-20T09:35:50.230Z,31.50
2018-06-20T09:36:53.713Z,31.50
2018-06-20T09:37:57.110Z,31.50
2018-06-20T09:39:00.914Z,31.50
2018-06-20T09:40:04.302Z,31.50
2018-06-20T09:41:07.617Z,31.50
2018-06-20T09:42:11.201Z,31.50
2018-06-20T09:43:14.567Z,31.50
2018-06-20T09:44:17.969Z,31.50
2018-06-20T09:45:21.497Z,31.50
2018-06-20T09:46:24.897Z,31.60
2018-06-20T09:47:28.241Z,31.50
2018-06-20T09:48:31.804Z,31.60
2018-06-20T09:49:35.358Z,31.60
2018-06-20T09:50:44.181Z,31.60
2018-06-20T09:51:47.670Z,31.60
2018-06-20T09:52:51.125Z,31.60
2018-06-20T09:53:54.541Z,31.60
2018-06-20T09:54:57.993Z,31.60
2018-06-20T09:56:01.357Z,31.60
2018-06-20T09:57:04.893Z,31.60
2018-06-20T09:58:08.447Z,31.60
2018-06-20T10:00:26.159Z,31.60
2018-06-20T10:01:34.979Z,31.60
2018-06-20T10:02:43.885Z,31.60
2018-06-20T10:03:52.719Z,31.60
2018-06-20T10:05:01.457Z,31.60
2018-06-20T10:06:10.198Z,31.60
2018-06-20T10:07:18.785Z,31.60
2018-06-20T10:08:27.612Z,31.60
2018-06-20T10:09:36.412Z,31.60
2018-06-20T10:10:45.369Z,31.60
2018-06-20T10:11:54.333Z,31.60
2018-06-20T10:13:03.121Z,31.70
2018-06-20T10:14:10.945Z,31.70
2018-06-20T10:15:14.331Z,31.70
2018-06-20T10:16:17.889Z,31.70
2018-06-20T10:17:21.346Z,31.70
2018-06-20T10:18:24.881Z,31.80
2018-06-20T10:19:28.332Z,31.80
2018-06-20T10:20:31.740Z,31.70
2018-06-20T10:21:35.216Z,31.80
2018-06-20T10:22:38.837Z,31.90
2018-06-20T10:23:42.236Z,31.80
2018-06-20T10:24:45.713Z,31.80
2018-06-20T10:25:49.126Z,31.80
2018-06-20T10:26:52.550Z,31.80
2018-06-20T10:27:56.485Z,31.90
2018-06-20T10:28:59.869Z,32.00
2018-06-20T10:30:03.266Z,32.00
2018-06-20T10:31:06.859Z,32.00
2018-06-20T10:32:10.356Z,32.00
2018-06-20T10:33:14.204Z,32.00
2018-06-20T10:34:17.799Z,32.00
2018-06-20T10:35:21.425Z,32.10
2018-06-20T10:36:24.971Z,32.10
2018-06-20T10:38:31.517Z,32.10
2018-06-20T10:39:34.936Z,32.10
2018-06-20T10:40:38.435Z,32.10
2018-06-20T10:41:41.801Z,32.10
2018-06-20T10:42:45.260Z,32.10
2018-06-20T10:43:48.597Z,32.20
2018-06-20T10:44:51.977Z,32.20
2018-06-20T10:47:04.708Z,32.20
2018-06-20T10:48:13.160Z,32.30
2018-06-20T10:49:17.970Z,31.90
2018-06-20T10:50:21.462Z,31.90
2018-06-20T10:51:24.879Z,32.00
2018-06-20T10:52:28.278Z,32.00
2018-06-20T10:53:31.854Z,32.10
2018-06-20T10:54:35.349Z,32.20
2018-06-20T10:55:39.568Z,32.30
2018-06-20T10:56:48.225Z,32.40
2018-06-20T10:57:57.113Z,32.40
2018-06-20T10:59:05.883Z,32.40
2018-06-20T11:00:14.625Z,32.50
2018-06-20T11:01:23.314Z,32.50
2018-06-20T11:02:31.978Z,32.50
2018-06-20T11:03:40.961Z,32.60
2018-06-20T11:04:49.694Z,32.60
2018-06-20T11:05:58.632Z,32.60
2018-06-20T11:07:07.469Z,32.70
2018-06-20T11:08:16.203Z,32.70
2018-06-20T11:09:25.085Z,32.80
2018-06-20T11:10:33.930Z,32.60
2018-06-20T11:11:42.654Z,32.50
2018-06-20T11:12:51.510Z,32.60
2018-06-20T11:13:55.042Z,32.70
2018-06-20T11:14:58.951Z,32.80
2018-06-20T11:16:02.353Z,32.90
2018-06-20T11:17:05.789Z,32.80
2018-06-20T11:18:09.142Z,32.70
2018-06-20T11:19:12.556Z,32.80
2018-06-20T11:20:18.297Z,33.00
2018-06-20T11:21:21.655Z,33.10
2018-06-20T11:22:25.010Z,33.10
2018-06-20T11:23:28.835Z,33.30
2018-06-20T11:24:32.205Z,33.30
2018-06-20T11:25:35.565Z,33.40
2018-06-20T11:26:38.952Z,33.40
2018-06-20T11:27:42.555Z,33.50
2018-06-20T11:28:46.100Z,33.50
2018-06-20T11:29:49.715Z,33.60
2018-06-20T11:30:53.714Z,33.70
2018-06-20T11:31:57.355Z,33.70
2018-06-20T11:33:00.901Z,33.80
2018-06-20T11:34:04.304Z,33.90
2018-06-20T11:35:07.877Z,33.90
2018-06-20T11:36:11.592Z,34.00
2018-06-20T11:37:15.033Z,34.00
2018-06-20T11:38:18.511Z,34.00
2018-06-20T11:39:22.036Z,33.90
2018-06-20T11:40:25.396Z,33.90
2018-06-20T11:41:29.838Z,33.80
2018-06-20T11:42:33.198Z,33.70
2018-06-20T11:43:36.549Z,33.70
2018-06-20T11:44:39.909Z,33.60
2018-06-20T11:45:48.824Z,33.60
2018-06-20T11:47:59.468Z,33.60
2018-06-20T11:49:02.985Z,33.60
2018-06-20T11:50:06.510Z,33.00
2018-06-20T11:51:10.169Z,33.00
2018-06-20T11:52:18.959Z,33.00
2018-06-20T11:53:22.922Z,33.10
2018-06-20T11:54:26.278Z,33.10
2018-06-20T11:55:38.044Z,33.10
2018-06-20T11:56:41.432Z,33.10
2018-06-20T11:57:44.986Z,33.20
2018-06-20T11:58:53.729Z,33.10
2018-06-20T12:01:00.273Z,33.20
2018-06-20T12:02:09.085Z,33.20
2018-06-20T12:03:17.900Z,32.70
2018-06-20T12:04:26.713Z,32.70
2018-06-20T12:05:35.552Z,32.80
2018-06-20T12:06:44.270Z,32.80
2018-06-20T12:07:52.971Z,32.90
2018-06-20T12:10:02.466Z,33.00
2018-06-20T12:11:11.825Z,33.00
2018-06-20T12:12:20.600Z,32.60
2018-06-20T12:13:29.401Z,32.60
2018-06-20T12:14:38.402Z,32.70
2018-06-20T12:15:47.965Z,32.80
2018-06-20T12:16:50.612Z,32.90
2018-06-20T12:17:59.505Z,33.00
2018-06-20T12:19:08.453Z,33.00
2018-06-20T12:20:17.297Z,33.10
2018-06-20T12:21:25.946Z,33.10
2018-06-20T12:22:35.013Z,33.10
2018-06-20T12:23:44.227Z,33.10
2018-06-20T12:24:52.968Z,33.10
2018-06-20T12:26:02.683Z,33.20
2018-06-20T12:27:11.481Z,33.20
2018-06-20T12:28:20.809Z,33.20
2018-06-20T12:29:29.497Z,33.10
2018-06-20T12:30:38.213Z,33.20
2018-06-20T12:31:46.989Z,33.20
2018-06-20T12:32:55.792Z,33.20
2018-06-20T12:34:04.483Z,33.10
2018-06-20T12:35:13.196Z,33.10
2018-06-20T12:36:23.214Z,33.10
2018-06-20T12:37:32.048Z,33.10
2018-06-20T12:38:40.903Z,33.10
2018-06-20T12:39:44.605Z,33.10
2018-06-20T12:40:53.475Z,33.20
2018-06-20T12:43:03.653Z,33.20
2018-06-20T12:44:12.327Z,33.20
2018-06-20T12:45:18.118Z,32.90
2018-06-20T12:46:25.119Z,32.90
2018-06-20T12:47:33.382Z,33.00
2018-06-20T12:48:36.725Z,33.10
2018-06-20T12:49:44.370Z,33.20
2018-06-20T12:50:47.959Z,33.30
2018-06-20T12:51:51.340Z,33.30
2018-06-20T12:52:54.985Z,33.30
2018-06-20T12:53:58.603Z,33.40
2018-06-20T12:55:01.977Z,33.40
2018-06-20T12:56:05.543Z,33.40
2018-06-20T12:57:09.070Z,33.40
2018-06-20T12:58:12.461Z,33.40
2018-06-20T12:59:16.001Z,33.40
2018-06-20T13:00:19.400Z,33.50
2018-06-20T13:01:22.825Z,33.50
2018-06-20T13:02:26.284Z,33.50
2018-06-20T13:03:29.888Z,33.60
2018-06-20T13:04:33.410Z,33.50
2018-06-20T13:05:37.032Z,33.60
2018-06-20T13:06:40.568Z,33.60
2018-06-20T13:07:44.065Z,33.60
2018-06-20T13:08:47.396Z,33.60
2018-06-20T13:10:53.789Z,33.60
2018-06-20T13:11:57.177Z,33.60
2018-06-20T13:13:00.792Z,33.70
2018-06-20T13:14:04.332Z,33.70
2018-06-20T13:15:07.681Z,33.70
2018-06-20T13:16:11.077Z,33.70
2018-06-20T13:17:14.492Z,33.70
2018-06-20T13:18:18.163Z,33.70
2018-06-20T13:19:21.538Z,33.70
2018-06-20T13:20:24.946Z,33.70
2018-06-20T13:21:29.207Z,33.70
2018-06-20T13:22:32.521Z,33.70
2018-06-20T13:23:35.936Z,33.80
2018-06-20T13:25:42.628Z,33.80
2018-06-20T13:26:46.474Z,33.80
2018-06-20T13:27:50.253Z,33.80
2018-06-20T13:28:54.550Z,33.80
2018-06-20T13:30:03.655Z,33.70
2018-06-20T13:31:14.558Z,33.70
2018-06-20T13:32:23.480Z,33.40
2018-06-20T13:33:32.401Z,33.20
2018-06-20T13:34:41.782Z,33.40
2018-06-20T13:35:51.269Z,33.60
2018-06-20T13:37:00.122Z,33.70
2018-06-20T13:38:08.933Z,33.80
2018-06-20T13:39:17.545Z,33.90
2018-06-20T13:40:26.251Z,34.00
2018-06-20T13:41:34.913Z,34.00
2018-06-20T13:42:43.726Z,34.00
2018-06-20T13:45:00.182Z,34.10
2018-06-20T13:46:08.893Z,34.00
2018-06-20T13:47:17.991Z,34.10
2018-06-20T13:48:29.355Z,34.00
2018-06-20T13:49:32.703Z,34.00
2018-06-20T13:50:37.161Z,34.10
2018-06-20T13:51:40.864Z,34.10
2018-06-20T13:52:44.426Z,34.20
2018-06-20T13:53:47.843Z,34.20
2018-06-20T13:54:51.375Z,34.30
2018-06-20T13:56:59.229Z,34.30
2018-06-20T13:58:02.661Z,34.30
2018-06-20T13:59:06.304Z,34.40
2018-06-20T14:00:09.881Z,34.40
2018-06-20T14:01:13.243Z,34.40
2018-06-20T14:02:20.869Z,34.40
2018-06-20T14:03:24.229Z,34.20
2018-06-20T14:04:27.585Z,34.10
2018-06-20T14:05:31.388Z,34.20
2018-06-20T14:06:35.035Z,34.10
2018-06-20T14:07:39.438Z,34.20
2018-06-20T14:08:44.323Z,34.40
2018-06-20T14:10:50.881Z,34.50
2018-06-20T14:11:54.345Z,34.50
2018-06-20T14:12:57.709Z,34.50
2018-06-20T14:14:01.072Z,34.50
2018-06-20T14:15:04.538Z,34.60
2018-06-20T14:16:08.006Z,34.60
2018-06-20T14:17:11.320Z,34.60
2018-06-20T14:18:14.794Z,34.70
2018-06-20T14:19:22.357Z,34.70
2018-06-20T14:20:31.229Z,34.70
2018-06-20T14:21:35.714Z,34.70
2018-06-20T14:22:39.734Z,34.60
2018-06-20T14:23:43.094Z,34.60
2018-06-20T14:24:46.589Z,34.60
2018-06-20T14:25:49.949Z,34.70